Time;durP1;ratioP1;P1;durP2;ratioP2;P2;SDS_P1;SDS_P2;PMS_P1;PMS_P2;Temp;Humidity;BMP_temperature;BMP_pressure;BME280_temperature;BME280_humidity;BME280_pressure;Samples;Min_cycle;Max_cycle;Signal;HPM_P1;HPM_P2
2022/08/12 00:42:56;;;;;;;1.55;0.65;;;;;;;17.57;48.35;102196.88;5017370;28;20037;-76
2022/08/12 00:45:21;;;;;;;2.58;1.10;;;;;;;17.55;48.00;102192.59;5014230;28;20924;-75
2022/08/12 00:47:51;;;;;;;2.90;1.13;;;;;;;17.53;48.30;102190.00;5019574;28;20045;-75
2022/08/12 00:50:18;;;;;;;2.55;0.70;;;;;;;17.48;47.82;102196.47;5022901;28;20609;-75
2022/08/12 00:52:51;;;;;;;2.38;0.68;;;;;;;17.41;47.59;102191.44;5037268;28;20044;-75
2022/08/12 00:55:18;;;;;;;2.88;0.90;;;;;;;17.49;47.53;102188.44;5023347;28;20060;-75
2022/08/12 00:57:47;;;;;;;1.65;0.70;;;;;;;17.51;47.11;102191.88;5018576;28;20112;-74
2022/08/12 01:00:13;;;;;;;5.05;1.00;;;;;;;17.53;47.01;102187.38;5034093;28;20111;-75
2022/08/12 01:02:41;;;;;;;2.53;0.80;;;;;;;17.50;47.10;102195.47;5020794;28;20053;-77
2022/08/12 01:13:32;;;;;;;4.63;0.98;;;;;;;17.42;46.79;102187.00;5016593;28;20049;-73
2022/08/12 01:16:02;;;;;;;4.07;1.02;;;;;;;17.41;46.71;102190.59;5015301;28;20035;-72
2022/08/12 01:18:32;;;;;;;1.83;0.82;;;;;;;17.34;46.81;102183.91;5016140;28;20033;-72
2022/08/12 01:21:28;;;;;;;7.45;1.20;;;;;;;17.32;46.88;102183.09;5014481;28;20205;-73
2022/08/12 01:24:10;;;;;;;1.67;0.68;;;;;;;17.27;46.81;102190.38;5012231;28;20119;-73
2022/08/12 01:26:38;;;;;;;1.60;0.65;;;;;;;17.29;46.58;102183.22;5014809;28;20032;-72
2022/08/12 01:29:06;;;;;;;1.10;0.73;;;;;;;17.27;46.66;102185.97;5014827;28;20037;-70
2022/08/12 01:31:35;;;;;;;2.95;0.98;;;;;;;17.14;46.47;102182.19;5020538;28;20563;-73
2022/08/12 01:34:07;;;;;;;3.33;1.40;;;;;;;17.02;46.76;102183.59;5016564;28;20034;-66
2022/08/12 01:36:42;;;;;;;;;;;;;;;17.03;46.97;102180.06;5017025;28;20049;-66
2022/08/12 01:39:09;;;;;;;3.20;0.88;;;;;;;16.93;47.01;102179.63;5009863;28;20618;-66
2022/08/12 01:41:39;;;;;;;3.67;0.65;;;;;;;16.92;47.22;102180.56;5006991;28;20098;-66
2022/08/12 01:44:08;;;;;;;1.70;0.98;;;;;;;17.01;46.91;102184.56;5012952;28;20040;-66
2022/08/12 01:46:42;;;;;;;5.00;0.90;;;;;;;17.05;46.50;102177.34;5016672;28;20088;-67
2022/08/12 01:49:42;;;;;;;4.38;0.73;;;;;;;17.10;46.30;102184.13;5012205;28;20718;-69
2022/08/12 01:52:19;;;;;;;2.30;0.77;;;;;;;17.03;46.40;102166.84;5011643;28;20045;-69
2022/08/12 01:54:45;;;;;;;2.00;0.60;;;;;;;17.05;46.20;102178.19;5013153;28;20033;-69
2022/08/12 01:57:35;;;;;;;2.33;0.50;;;;;;;17.03;46.39;102180.06;5012981;28;20061;-69
2022/08/12 02:00:12;;;;;;;2.50;0.93;;;;;;;16.97;46.46;102175.91;5013927;28;20601;-70
2022/08/12 02:02:46;;;;;;;2.90;0.90;;;;;;;17.06;46.10;102184.34;5010619;28;20136;-69
2022/08/12 02:11:29;;;;;;;2.65;1.10;;;;;;;16.87;46.39;102189.59;5013766;28;20040;-70
2022/08/12 02:14:29;;;;;;;1.60;0.70;;;;;;;16.83;46.44;102184.47;5016099;28;20157;-70
2022/08/12 02:17:28;;;;;;;2.55;0.85;;;;;;;16.70;46.74;102182.44;4986682;28;20052;-70
2022/08/12 02:20:03;;;;;;;1.42;0.80;;;;;;;16.62;46.91;102186.28;5016237;28;20044;-70
2022/08/12 02:22:37;;;;;;;1.38;1.00;;;;;;;16.55;47.13;102183.97;5015389;28;20139;-70
2022/08/12 02:25:05;;;;;;;1.42;0.70;;;;;;;16.37;47.18;102181.22;5015998;28;20038;-70
2022/08/12 02:27:41;;;;;;;2.05;1.10;;;;;;;16.32;47.73;102177.94;5018403;28;20064;-70
2022/08/12 02:30:10;;;;;;;2.13;0.68;;;;;;;16.21;48.02;102175.75;5025462;28;20037;-77
2022/08/12 02:32:39;;;;;;;1.60;0.80;;;;;;;16.19;48.06;102179.38;5022783;28;20049;-66
2022/08/12 02:35:13;;;;;;;3.00;0.70;;;;;;;16.15;48.21;102172.53;5018291;28;20045;-69
2022/08/12 02:37:40;;;;;;;5.78;1.40;;;;;;;16.16;48.21;102171.63;5017885;28;20229;-72
2022/08/12 02:40:07;;;;;;;1.92;1.20;;;;;;;16.10;48.12;102169.25;5018605;28;20148;-69
2022/08/12 02:42:34;;;;;;;5.57;1.35;;;;;;;15.97;48.29;102172.38;5018660;28;20507;-70
2022/08/12 02:45:07;;;;;;;1.30;0.85;;;;;;;15.90;48.72;102163.00;5014717;28;20405;-69
2022/08/12 02:47:39;;;;;;;1.98;1.50;;;;;;;15.88;48.74;102162.19;5016416;28;20053;-70
2022/08/12 02:50:06;;;;;;;1.20;0.80;;;;;;;15.80;48.55;102161.69;5017658;28;20044;-70
2022/08/12 02:52:33;;;;;;;3.63;1.73;;;;;;;15.79;49.04;102159.94;5018615;28;20148;-71
2022/08/12 02:55:08;;;;;;;1.90;1.08;;;;;;;15.83;49.08;102158.91;5013457;28;20034;-70
2022/08/12 02:57:34;;;;;;;1.63;1.00;;;;;;;15.72;49.04;102155.88;5015380;28;21139;-68
2022/08/12 03:00:03;;;;;;;1.42;0.90;;;;;;;15.65;48.84;102157.03;5015921;28;20037;-68
2022/08/12 03:02:32;;;;;;;1.70;0.95;;;;;;;15.68;49.04;102151.63;5013330;28;20041;-69
2022/08/12 03:05:02;;;;;;;3.05;1.27;;;;;;;15.70;49.05;102147.16;5015110;28;20414;-69
2022/08/12 03:07:42;;;;;;;2.45;0.98;;;;;;;15.64;49.00;102157.94;5016210;28;20053;-68
2022/08/12 03:10:10;;;;;;;1.88;0.80;;;;;;;15.64;49.13;102152.69;5016475;28;20032;-69
2022/08/12 03:12:43;;;;;;;1.70;1.02;;;;;;;15.66;49.35;102156.09;5016071;28;20080;-69
2022/08/12 03:15:16;;;;;;;1.77;0.80;;;;;;;15.52;49.20;102154.91;5021958;28;20235;-69
2022/08/12 03:17:53;;;;;;;1.88;1.20;;;;;;;15.50;49.28;102151.47;5014279;28;20089;-69
2022/08/12 03:20:21;;;;;;;1.70;0.80;;;;;;;15.47;49.59;102145.47;5017479;28;20119;-68
2022/08/12 03:22:49;;;;;;;2.53;0.90;;;;;;;15.39;49.37;102137.88;5019314;28;20052;-68
2022/08/12 03:25:26;;;;;;;3.70;1.50;;;;;;;15.36;49.52;102144.13;5018900;28;20151;-72
2022/08/12 03:27:54;;;;;;;4.40;1.00;;;;;;;15.30;49.62;102139.09;5000454;28;20045;-68
2022/08/12 03:30:26;;;;;;;3.90;0.80;;;;;;;15.29;49.71;102145.28;5017723;28;20826;-69
2022/08/12 03:32:53;;;;;;;1.85;0.75;;;;;;;15.28;49.65;102140.97;5013852;28;20046;-68
2022/08/12 03:35:27;;;;;;;1.13;0.77;;;;;;;15.18;49.99;102145.69;5016854;28;20084;-69
2022/08/12 03:38:07;;;;;;;7.55;1.35;;;;;;;15.27;50.02;102139.22;5033814;28;20107;-68
2022/08/12 04:00:27;;;;;;;5.03;1.50;;;;;;;15.05;50.35;102139.19;5015497;28;20026;-69
2022/08/12 04:03:01;;;;;;;1.92;1.10;;;;;;;15.06;49.94;102148.81;5010515;28;20046;-73
2022/08/12 04:05:29;;;;;;;3.58;1.23;;;;;;;15.08;50.19;102148.72;5016732;28;20045;-70
2022/08/12 04:07:56;;;;;;;2.53;1.17;;;;;;;15.09;50.41;102150.47;5015448;28;20041;-70
2022/08/12 04:13:13;;;;;;;2.88;1.52;;;;;;;15.14;50.18;102151.13;5015582;28;20043;-69
2022/08/12 04:13:15;;;;;;;2.95;1.60;;;;;;;15.16;50.53;102147.50;5013777;28;20033;-70
2022/08/12 04:15:45;;;;;;;2.10;1.58;;;;;;;15.16;50.41;102149.31;5008143;28;20099;-71
2022/08/12 04:18:14;;;;;;;3.55;1.73;;;;;;;15.11;50.40;102144.22;5015139;28;20124;-72
2022/08/12 04:20:43;;;;;;;2.70;1.33;;;;;;;15.22;50.47;102151.72;5014975;28;20160;-72
2022/08/12 04:23:14;;;;;;;4.40;1.50;;;;;;;15.15;50.91;102156.34;5015070;28;20203;-69
2022/08/12 04:25:40;;;;;;;4.65;2.13;;;;;;;15.17;50.62;102149.25;5015210;28;20801;-74
2022/08/12 04:28:08;;;;;;;5.00;2.47;;;;;;;15.20;50.73;102152.69;5018227;28;20040;-74
2022/08/12 04:30:35;;;;;;;3.33;2.88;;;;;;;15.21;50.72;102151.75;5014616;28;20064;-71
2022/08/12 04:33:01;;;;;;;4.60;2.17;;;;;;;15.30;50.49;102148.78;4986650;28;20045;-70
2022/08/12 04:35:27;;;;;;;1.92;1.55;;;;;;;15.33;50.56;102152.16;5015859;28;20026;-69
2022/08/12 04:37:54;;;;;;;3.83;2.78;;;;;;;15.20;50.99;102152.69;5014453;28;20071;-68
2022/08/12 04:40:22;;;;;;;3.47;1.95;;;;;;;15.30;50.87;102149.63;5016145;28;20048;-71
2022/08/12 04:42:50;;;;;;;7.75;2.15;;;;;;;15.36;50.85;102151.19;5011117;28;20052;-66
2022/08/12 04:45:19;;;;;;;3.72;1.55;;;;;;;15.45;50.65;102142.03;5015436;28;20052;-70
2022/08/12 04:47:46;;;;;;;4.35;2.10;;;;;;;15.39;50.83;102143.13;5013867;28;20585;-70
2022/08/12 04:50:16;;;;;;;5.25;3.22;;;;;;;15.48;50.55;102145.44;5014317;28;20025;-69
2022/08/12 04:52:56;;;;;;;3.83;2.83;;;;;;;15.64;50.44;102137.75;5012757;28;20053;-72
2022/08/12 04:55:22;;;;;;;2.90;1.48;;;;;;;15.65;50.15;102143.88;5021035;28;20060;-77
2022/08/12 04:57:48;;;;;;;3.00;1.90;;;;;;;15.71;50.33;102143.63;5020898;28;20125;-77
2022/08/12 05:00:15;;;;;;;1.92;1.40;;;;;;;15.67;50.27;102136.75;5023879;28;20101;-77
2022/08/12 05:02:41;;;;;;;4.70;2.08;;;;;;;15.73;50.46;102141.78;5006575;28;20789;-69
2022/08/12 05:05:17;;;;;;;3.80;2.30;;;;;;;15.78;50.19;102148.56;5012563;28;20041;-70
2022/08/12 05:07:43;;;;;;;4.32;1.92;;;;;;;15.97;49.87;102143.38;5014715;28;20461;-69
2022/08/12 05:10:09;;;;;;;2.10;1.58;;;;;;;16.07;49.82;102143.84;5015503;28;20033;-69
2022/08/12 05:12:44;;;;;;;2.42;1.40;;;;;;;16.23;49.42;102136.13;5012736;28;20494;-69
2022/08/12 05:15:14;;;;;;;4.55;1.58;;;;;;;16.35;49.29;102142.63;5015125;28;20037;-72
2022/08/12 05:17:40;;;;;;;2.72;1.88;;;;;;;16.53;49.18;102143.59;4992138;28;20050;-70
2022/08/12 05:20:11;;;;;;;3.72;1.58;;;;;;;16.53;48.71;102155.03;4986067;28;20076;-70
2022/08/12 05:22:37;;;;;;;2.45;1.27;;;;;;;16.67;48.85;102151.75;4987154;28;20157;-69
2022/08/12 05:25:06;;;;;;;3.45;2.88;;;;;;;16.79;48.64;102153.84;4995005;28;20093;-70
2022/08/12 05:27:33;;;;;;;6.05;1.98;;;;;;;16.83;48.68;102147.50;5002192;28;20119;-72
2022/08/12 05:29:58;;;;;;;5.45;2.00;;;;;;;17.05;48.53;102146.50;5018362;28;20037;-76
2022/08/12 05:32:24;;;;;;;4.70;1.60;;;;;;;17.68;47.79;102153.19;5003006;28;20045;-72
2022/08/12 05:34:54;;;;;;;1.95;1.17;;;;;;;19.78;44.28;102147.09;5013135;28;20052;-70
2022/08/12 05:37:22;;;;;;;3.28;2.42;;;;;;;21.59;39.83;102152.66;5003980;28;20154;-70
2022/08/12 05:39:49;;;;;;;9.55;2.13;;;;;;;21.85;37.42;102150.91;4990952;28;20585;-71
2022/08/12 05:42:14;;;;;;;3.30;1.25;;;;;;;21.27;38.24;102155.63;4991451;28;20148;-72
2022/08/12 05:44:40;;;;;;;2.88;1.20;;;;;;;21.32;38.60;102149.03;4989364;28;20091;-70
2022/08/12 05:47:06;;;;;;;3.85;1.17;;;;;;;22.86;36.08;102149.16;4994780;28;20041;-70
2022/08/12 05:49:33;;;;;;;3.95;1.08;;;;;;;25.36;29.94;102144.91;4990997;28;20018;-70
2022/08/12 05:52:00;;;;;;;2.80;1.20;;;;;;;26.60;27.75;102138.75;4992337;28;20052;-70
2022/08/12 05:54:26;;;;;;;8.93;1.48;;;;;;;27.64;26.12;102141.81;4992364;28;20026;-72
2022/08/12 05:56:53;;;;;;;7.78;1.80;;;;;;;28.82;24.30;102140.38;4996454;28;20738;-71
2022/08/12 05:59:20;;;;;;;5.30;1.52;;;;;;;29.65;23.84;102137.44;5014480;28;20142;-71
2022/08/12 06:01:46;;;;;;;3.17;1.02;;;;;;;30.94;22.08;102134.66;5012742;28;20064;-71
2022/08/12 06:04:13;;;;;;;6.20;1.25;;;;;;;30.86;22.17;102136.50;5027130;28;20029;-71
2022/08/12 06:06:40;;;;;;;3.08;0.90;;;;;;;31.62;20.72;102133.50;5013701;28;20044;-71
2022/08/12 06:09:10;;;;;;;3.42;0.70;;;;;;;32.08;19.72;102132.91;5012082;28;20034;-71
2022/08/12 06:11:40;;;;;;;5.70;1.13;;;;;;;31.53;21.06;102137.22;5018079;28;20037;-70
2022/08/12 06:14:05;;;;;;;4.53;1.10;;;;;;;32.49;19.70;102135.44;5010500;28;20056;-70
2022/08/12 06:16:32;;;;;;;4.82;0.85;;;;;;;31.84;20.29;102136.50;5013602;28;20037;-71
2022/08/12 06:18:57;;;;;;;1.65;0.55;;;;;;;31.50;21.22;102132.16;5012625;28;20046;-72
2022/08/12 06:21:23;;;;;;;2.10;0.80;;;;;;;32.60;20.62;102132.31;5016774;28;20034;-72
2022/08/12 06:23:50;;;;;;;3.72;1.15;;;;;;;33.36;19.13;102135.19;5012389;28;20052;-70
2022/08/12 06:26:19;;;;;;;2.38;1.27;;;;;;;33.25;19.66;102136.44;5017197;28;20033;-71
2022/08/12 06:28:50;;;;;;;2.95;0.77;;;;;;;33.53;19.67;102138.59;5007346;28;20041;-69
2022/08/12 06:31:19;;;;;;;2.13;0.82;;;;;;;33.35;19.29;102141.63;5009654;28;20438;-72
2022/08/12 06:33:46;;;;;;;1.00;0.43;;;;;;;33.61;19.29;102149.31;5013591;28;20065;-72
2022/08/12 06:36:15;;;;;;;3.63;0.60;;;;;;;33.76;19.81;102145.84;5011162;28;20505;-71
2022/08/12 06:38:42;;;;;;;4.40;1.10;;;;;;;32.78;18.97;102145.56;5011318;28;20522;-71
2022/08/12 06:43:54;;;;;;;4.97;1.17;;;;;;;33.50;18.81;102144.34;5021046;28;20049;-71
2022/08/12 06:46:22;;;;;;;9.10;1.10;;;;;;;33.20;19.41;102151.56;5013289;28;20080;-71
2022/08/12 06:48:55;;;;;;;4.10;1.40;;;;;;;32.80;19.81;102140.81;5008848;28;20743;-72
2022/08/12 06:51:22;;;;;;;5.43;1.13;;;;;;;32.67;19.47;102140.56;5015514;28;20127;-72
2022/08/12 06:53:48;;;;;;;2.88;0.75;;;;;;;32.37;20.32;102147.66;5009244;28;20049;-72
2022/08/12 06:56:13;;;;;;;2.67;0.68;;;;;;;32.29;19.55;102145.81;5009039;28;20029;-70
2022/08/12 06:58:39;;;;;;;3.88;0.85;;;;;;;31.36;20.96;102149.88;5011863;28;20508;-70
2022/08/12 07:01:06;;;;;;;4.65;0.70;;;;;;;31.45;21.58;102145.31;5017204;28;20041;-71
2022/08/12 07:03:32;;;;;;;2.55;0.98;;;;;;;32.70;19.74;102148.34;5016078;28;20277;-71
2022/08/12 07:06:00;;;;;;;3.47;1.45;;;;;;;33.89;18.50;102148.72;5016905;28;20129;-73
2022/08/12 07:08:27;;;;;;;2.25;0.73;;;;;;;33.46;18.79;102149.31;5017698;28;20045;-72
2022/08/12 07:10:58;;;;;;;6.07;1.45;;;;;;;33.41;18.63;102142.75;5015211;28;20099;-71
2022/08/12 07:13:49;;;;;;;1.83;1.05;;;;;;;32.79;19.46;102139.16;5015937;28;20294;-71
2022/08/12 07:16:16;;;;;;;;;;;;;;;32.69;19.43;102135.81;5016490;28;20493;-71
2022/08/12 07:18:44;;;;;;;1.65;0.65;;;;;;;33.46;19.01;102134.94;5014152;28;19971;-70
2022/08/12 07:21:11;;;;;;;4.47;1.13;;;;;;;34.17;18.38;102129.09;5017423;28;21068;-70
2022/08/12 07:23:38;;;;;;;4.38;1.00;;;;;;;33.69;18.94;102139.44;5024801;28;20053;-69
2022/08/12 07:26:06;;;;;;;3.67;1.33;;;;;;;34.02;18.19;102132.63;5014634;28;20036;-70
2022/08/12 07:28:34;;;;;;;2.08;0.75;;;;;;;32.99;19.76;102133.25;5015762;28;20037;-71
2022/08/12 07:31:07;;;;;;;2.53;0.50;;;;;;;34.04;18.52;102141.44;5014193;28;20159;-70
2022/08/12 07:33:37;;;;;;;2.88;0.80;;;;;;;34.78;18.25;102137.75;5015506;28;20044;-71
2022/08/12 07:36:05;;;;;;;2.47;0.82;;;;;;;35.37;17.50;102147.47;5008683;28;20052;-70
2022/08/12 07:38:43;;;;;;;2.53;1.05;;;;;;;34.02;18.42;102142.66;5014607;28;20041;-71
2022/08/12 07:41:19;;;;;;;5.35;0.82;;;;;;;34.09;18.51;102154.44;5014856;28;20507;-70
2022/08/12 07:43:48;;;;;;;2.45;0.75;;;;;;;33.86;18.93;102154.50;5014059;28;20197;-71
2022/08/12 07:46:17;;;;;;;4.53;0.60;;;;;;;33.95;18.61;102149.84;5031412;28;20049;-71
2022/08/12 07:48:54;;;;;;;1.65;0.98;;;;;;;32.73;19.82;102141.72;5031222;28;20075;-70
2022/08/12 07:51:22;;;;;;;6.97;1.20;;;;;;;33.11;19.66;102141.81;5016799;28;20564;-71
2022/08/12 07:53:48;;;;;;;2.67;0.85;;;;;;;33.60;19.86;102146.81;5017068;28;20093;-70
2022/08/12 07:56:15;;;;;;;1.60;0.50;;;;;;;35.98;17.68;102144.16;5015594;28;20045;-70
2022/08/12 07:58:41;;;;;;;3.42;1.58;;;;;;;35.72;17.02;102145.66;5019668;28;20163;-70
2022/08/12 08:01:14;;;;;;;2.88;1.02;;;;;;;35.92;16.88;102139.53;5014687;28;20120;-70
2022/08/12 08:06:30;;;;;;;1.95;1.00;;;;;;;36.70;15.49;102141.97;5018890;28;20040;-71
2022/08/12 08:09:00;;;;;;;3.88;0.82;;;;;;;37.27;14.92;102143.25;5014398;28;20048;-71
2022/08/12 08:14:11;;;;;;;2.83;0.93;;;;;;;38.23;13.65;102143.69;5013186;28;20045;-73
2022/08/12 08:16:38;;;;;;;4.20;1.08;;;;;;;37.80;14.24;102138.78;5017382;28;20041;-70
2022/08/12 08:19:04;;;;;;;1.17;0.68;;;;;;;37.31;15.44;102133.59;5015854;28;20034;-70
2022/08/12 08:21:34;;;;;;;4.18;1.08;;;;;;;37.20;15.27;102136.97;5016010;28;20036;-72
2022/08/12 08:24:18;;;;;;;2.58;1.10;;;;;;;37.78;14.88;102138.16;5012036;28;20077;-70
2022/08/12 08:27:04;;;;;;;7.65;0.75;;;;;;;38.16;13.89;102147.25;5014664;28;20065;-70
2022/08/12 08:29:34;;;;;;;3.35;0.73;;;;;;;38.16;14.00;102143.69;5015375;28;20041;-71
2022/08/12 08:32:00;;;;;;;6.80;1.33;;;;;;;38.26;13.29;102138.66;5013968;28;20091;-68
2022/08/12 08:34:28;;;;;;;9.05;1.38;;;;;;;37.93;14.03;102149.69;5013929;28;20116;-71
2022/08/12 08:36:54;;;;;;;4.75;1.00;;;;;;;37.08;15.19;102146.84;5015487;28;20613;-69
2022/08/12 08:39:20;;;;;;;4.05;1.33;;;;;;;36.90;15.59;102145.53;5018339;28;20029;-71
2022/08/12 08:44:31;;;;;;;3.88;0.73;;;;;;;37.75;14.92;102151.16;5030386;28;20061;-69
2022/08/12 08:46:56;;;;;;;2.65;0.60;;;;;;;37.81;14.74;102144.00;5015087;28;20851;-70
2022/08/12 08:49:22;;;;;;;3.22;0.90;;;;;;;37.54;14.24;102140.50;5015524;28;20036;-69
2022/08/12 08:51:48;;;;;;;2.67;1.00;;;;;;;37.29;15.36;102146.59;5017476;28;20044;-69
2022/08/12 08:54:14;;;;;;;1.65;1.13;;;;;;;37.29;14.35;102141.16;5015870;28;20536;-70
2022/08/12 08:56:48;;;;;;;2.45;0.73;;;;;;;37.47;14.72;102131.50;5015222;28;20033;-73
2022/08/12 08:59:21;;;;;;;3.33;0.60;;;;;;;36.59;15.55;102139.81;5016726;28;20097;-71
2022/08/12 09:01:46;;;;;;;4.20;1.05;;;;;;;37.05;15.21;102136.34;5014683;28;20034;-71
2022/08/12 09:04:14;;;;;;;4.20;1.30;;;;;;;36.39;15.52;102140.59;5011780;28;20448;-70
2022/08/12 09:06:40;;;;;;;2.92;1.02;;;;;;;36.79;15.55;102134.44;5008905;28;20052;-72
2022/08/12 09:09:07;;;;;;;1.75;1.10;;;;;;;36.73;15.56;102134.19;5016879;28;20033;-72
2022/08/12 09:14:20;;;;;;;4.35;0.82;;;;;;;36.41;16.47;102130.34;5017210;28;20068;-71
2022/08/12 09:16:45;;;;;;;5.22;0.93;;;;;;;35.17;17.46;102139.16;5011512;28;20434;-71
2022/08/12 09:19:14;;;;;;;1.88;0.63;;;;;;;34.60;18.38;102140.06;5014271;28;20029;-72
2022/08/12 09:21:40;;;;;;;2.42;0.80;;;;;;;34.34;17.99;102135.16;5011386;28;20189;-71
2022/08/12 09:24:06;;;;;;;11.60;1.65;;;;;;;33.98;18.30;102134.03;5013305;28;20068;-71
2022/08/12 09:26:33;;;;;;;5.05;1.10;;;;;;;32.72;19.84;102137.31;5013281;28;20163;-73
2022/08/12 09:28:59;;;;;;;2.42;1.00;;;;;;;32.26;19.57;102134.53;5013584;28;20466;-71
2022/08/12 09:31:28;;;;;;;2.58;0.95;;;;;;;31.81;19.45;102137.69;5014369;28;20511;-71
2022/08/12 09:33:53;;;;;;;3.80;1.00;;;;;;;31.70;19.84;102139.91;5011834;28;20218;-71
2022/08/12 09:36:20;;;;;;;4.90;1.25;;;;;;;32.15;19.23;102136.59;5012254;28;20506;-72
2022/08/12 09:38:56;;;;;;;1.90;0.65;;;;;;;31.35;19.91;102136.53;5011155;28;20421;-71
2022/08/12 09:41:22;;;;;;;2.15;0.60;;;;;;;31.02;20.07;102127.59;5015513;28;20183;-72
2022/08/12 09:46:32;;;;;;;4.43;1.05;;;;;;;30.52;20.09;102129.31;5011794;28;20029;-73
2022/08/12 09:48:58;;;;;;;4.15;1.15;;;;;;;30.51;20.76;102124.91;5010633;28;20040;-73
2022/08/12 09:51:25;;;;;;;2.55;0.73;;;;;;;31.03;20.10;102122.03;5011212;28;20476;-73
2022/08/12 09:53:51;;;;;;;3.42;0.68;;;;;;;30.73;20.23;102131.56;5009318;28;20045;-72
2022/08/12 09:56:18;;;;;;;4.88;0.73;;;;;;;30.89;19.80;102125.34;5022651;28;20068;-73
2022/08/12 09:58:46;;;;;;;1.20;0.73;;;;;;;30.97;18.93;102111.88;5009400;28;20053;-71
2022/08/12 10:01:12;;;;;;;6.85;1.17;;;;;;;31.16;18.12;102116.97;5013584;28;20029;-71
2022/08/12 10:03:43;;;;;;;5.40;0.63;;;;;;;30.95;18.76;102117.44;4991450;28;20631;-73
2022/08/12 10:06:09;;;;;;;4.78;0.63;;;;;;;30.94;19.30;102120.31;5001935;28;20056;-72
2022/08/12 10:08:36;;;;;;;1.73;0.43;;;;;;;30.95;18.57;102108.50;5004505;28;20045;-72
2022/08/12 10:13:51;;;;;;;2.65;0.75;;;;;;;31.26;18.98;102105.16;4992082;28;20037;-70
2022/08/12 10:16:22;;;;;;;2.17;0.60;;;;;;;31.72;19.32;102105.47;4992823;28;20034;-73
2022/08/12 10:18:50;;;;;;;1.65;0.60;;;;;;;31.52;18.66;102105.84;4989554;28;20096;-71
2022/08/12 10:21:39;;;;;;;1.58;0.52;;;;;;;32.10;18.36;102103.00;4997833;28;20148;-70
2022/08/12 10:24:15;;;;;;;1.10;0.50;;;;;;;32.12;17.58;102099.09;4985649;28;20045;-71
2022/08/12 10:29:45;;;;;;;4.82;0.70;;;;;;;31.09;18.96;102091.66;5010679;28;20045;-72
2022/08/12 10:32:15;;;;;;;6.25;0.63;;;;;;;31.65;18.29;102099.03;4996822;28;20084;-70
2022/08/12 10:34:41;;;;;;;4.55;0.65;;;;;;;31.37;19.16;102084.03;5035193;28;20033;-70
2022/08/12 10:37:07;;;;;;;1.42;0.95;;;;;;;31.66;18.38;102084.53;5019114;28;20082;-71
2022/08/12 10:39:36;;;;;;;7.95;0.90;;;;;;;31.54;18.03;102082.19;5030611;28;20068;-71
2022/08/12 10:44:51;;;;;;;2.70;0.63;;;;;;;31.64;19.08;102075.75;5012774;28;20110;-72
2022/08/12 10:47:18;;;;;;;4.82;0.70;;;;;;;31.48;19.05;102072.06;5014583;28;20568;-70
2022/08/12 10:49:45;;;;;;;4.38;0.60;;;;;;;31.85;18.67;102073.31;5013381;28;20474;-71
2022/08/12 10:52:11;;;;;;;4.53;0.60;;;;;;;31.77;18.90;102076.88;5011051;28;20073;-70
2022/08/12 10:54:37;;;;;;;1.27;0.50;;;;;;;32.03;18.17;102067.69;5015099;28;20133;-69
2022/08/12 10:57:03;;;;;;;2.95;0.55;;;;;;;32.09;18.63;102068.84;5011579;28;20068;-71
2022/08/12 10:59:30;;;;;;;1.23;0.50;;;;;;;32.10;17.38;102067.84;5013679;28;20117;-71
2022/08/12 11:02:03;;;;;;;0.90;0.57;;;;;;;32.35;18.50;102063.13;4998931;28;20664;-71
2022/08/12 11:04:30;;;;;;;5.75;0.60;;;;;;;32.13;17.85;102067.47;4984952;28;20034;-70
2022/08/12 11:06:57;;;;;;;3.38;0.43;;;;;;;32.21;18.00;102064.72;4995981;28;20030;-71
2022/08/12 11:09:30;;;;;;;1.70;0.80;;;;;;;32.08;18.14;102059.91;4982538;28;20076;-70
2022/08/12 11:11:58;;;;;;;7.68;0.60;;;;;;;31.74;19.41;102055.63;4985494;28;20034;-72
2022/08/12 11:14:27;;;;;;;7.13;0.75;;;;;;;31.68;18.29;102050.06;5014020;28;20047;-70
2022/08/12 11:17:24;;;;;;;1.70;0.80;;;;;;;31.46;19.03;102052.44;5016984;28;20498;-70
2022/08/12 11:19:49;;;;;;;4.80;0.70;;;;;;;31.79;19.20;102052.38;5013946;28;20231;-70
2022/08/12 11:22:15;;;;;;;1.65;0.75;;;;;;;32.17;18.82;102045.31;5013049;28;20514;-72
2022/08/12 11:24:40;;;;;;;4.75;1.00;;;;;;;32.08;18.99;102048.25;5015245;28;20133;-71
2022/08/12 11:27:07;;;;;;;4.75;0.55;;;;;;;32.32;18.60;102037.28;5009363;28;20045;-71
2022/08/12 11:29:33;;;;;;;3.78;1.05;;;;;;;32.19;19.30;102047.84;5015900;28;20132;-70
2022/08/12 11:31:58;;;;;;;3.20;0.60;;;;;;;32.01;19.93;102046.22;5013532;28;20063;-71
2022/08/12 11:34:24;;;;;;;1.85;0.68;;;;;;;31.75;20.62;102040.22;5015614;28;20042;-71
2022/08/12 11:36:59;;;;;;;5.80;0.95;;;;;;;31.18;20.27;102033.94;5029366;28;20163;-71
2022/08/12 11:39:26;;;;;;;1.60;0.80;;;;;;;31.59;19.85;102036.56;5017857;28;20100;-71
2022/08/12 11:41:51;;;;;;;5.45;1.83;;;;;;;31.96;19.44;102032.41;5014455;28;20036;-71
2022/08/12 11:44:17;;;;;;;1.70;0.70;;;;;;;32.10;18.99;102032.69;5018653;28;20037;-71
2022/08/12 11:46:43;;;;;;;5.40;1.30;;;;;;;31.64;20.39;102027.09;5018873;28;20026;-72
2022/08/12 11:49:10;;;;;;;4.43;1.10;;;;;;;31.45;20.57;102029.16;5032468;28;20033;-71
2022/08/12 11:51:36;;;;;;;3.65;0.75;;;;;;;31.47;21.14;102026.28;5019552;28;20045;-72
2022/08/12 11:54:03;;;;;;;2.28;0.60;;;;;;;31.95;21.55;102025.31;5016956;28;20053;-72
2022/08/12 11:56:29;;;;;;;1.65;1.13;;;;;;;32.08;20.57;102018.50;5020800;28;20040;-71
2022/08/12 11:58:55;;;;;;;2.92;1.17;;;;;;;32.05;20.66;102018.84;5015097;28;20037;-71
2022/08/12 12:01:20;;;;;;;1.48;0.90;;;;;;;31.89;19.97;102014.31;5014972;28;20048;-71
2022/08/12 12:03:46;;;;;;;4.53;0.70;;;;;;;31.21;20.83;102003.88;5014262;28;20053;-73
2022/08/12 12:06:14;;;;;;;2.63;0.95;;;;;;;31.65;20.53;102012.56;5018577;28;20743;-70
2022/08/12 12:08:39;;;;;;;3.70;1.17;;;;;;;32.03;20.61;102006.34;5031434;28;20533;-70
2022/08/12 12:11:05;;;;;;;3.60;0.88;;;;;;;32.12;20.21;102004.44;5016980;28;20041;-71
2022/08/12 12:13:30;;;;;;;7.80;1.27;;;;;;;31.92;20.60;102003.16;5015931;28;20053;-71
2022/08/12 12:15:56;;;;;;;4.47;1.10;;;;;;;31.80;20.15;101989.19;5016839;28;20383;-71
2022/08/12 12:18:29;;;;;;;2.35;0.93;;;;;;;32.18;20.55;102000.16;5018141;28;20033;-71
2022/08/12 12:21:00;;;;;;;2.63;0.90;;;;;;;31.78;20.41;101999.34;5014297;28;20116;-71
2022/08/12 12:23:26;;;;;;;2.50;1.00;;;;;;;31.81;20.94;102001.72;5005883;28;20527;-72
2022/08/12 12:25:52;;;;;;;5.45;1.40;;;;;;;31.78;20.32;101996.63;5013656;28;20032;-71
2022/08/12 12:28:17;;;;;;;4.97;1.85;;;;;;;31.71;20.44;101995.66;5013489;28;20080;-71
2022/08/12 12:30:43;;;;;;;2.15;1.02;;;;;;;32.10;20.31;102006.47;5016952;28;20048;-72
2022/08/12 12:33:10;;;;;;;2.17;1.08;;;;;;;32.18;19.98;101997.47;5017004;28;20156;-71
2022/08/12 12:35:37;;;;;;;6.43;1.08;;;;;;;32.28;19.32;101998.09;5017411;28;20040;-72
2022/08/12 12:38:05;;;;;;;2.03;0.85;;;;;;;32.37;19.89;101991.59;5017783;28;20510;-70
2022/08/12 12:40:31;;;;;;;7.50;1.42;;;;;;;32.31;19.05;101986.06;5018641;28;20571;-71
2022/08/12 12:42:58;;;;;;;1.90;0.85;;;;;;;32.31;19.55;101989.59;5018197;28;21710;-71
2022/08/12 12:45:24;;;;;;;2.33;1.17;;;;;;;32.39;19.62;101996.84;5017222;28;20030;-72
2022/08/12 12:48:03;;;;;;;1.50;0.80;;;;;;;32.21;19.71;101986.31;5013232;28;20495;-72
2022/08/12 12:50:35;;;;;;;2.00;1.17;;;;;;;32.44;19.96;101981.75;5012207;28;20052;-71
2022/08/12 12:53:00;;;;;;;2.65;1.15;;;;;;;32.58;19.23;101979.28;5014243;28;20045;-72
2022/08/12 12:55:27;;;;;;;2.70;1.08;;;;;;;32.61;19.16;101992.44;5017495;28;20501;-72
2022/08/12 12:57:52;;;;;;;4.32;1.05;;;;;;;32.41;19.11;101982.13;5001852;28;20045;-71
2022/08/12 13:00:20;;;;;;;2.45;1.38;;;;;;;32.60;18.95;101982.66;5012244;28;20411;-73
2022/08/12 13:02:55;;;;;;;7.05;1.10;;;;;;;32.32;19.13;101980.47;5012923;28;20076;-72
2022/08/12 13:05:30;;;;;;;4.60;1.13;;;;;;;32.68;19.61;101977.19;5013650;28;20458;-72
2022/08/12 13:07:59;;;;;;;1.80;1.20;;;;;;;32.75;18.74;101971.88;5012075;28;20264;-72
2022/08/12 13:10:26;;;;;;;2.38;0.55;;;;;;;32.79;18.39;101979.44;5013492;28;20537;-72
2022/08/12 13:12:53;;;;;;;3.95;0.88;;;;;;;32.68;18.54;101971.75;5012930;28;20041;-72
2022/08/12 13:15:19;;;;;;;3.63;0.90;;;;;;;32.92;18.25;101975.28;5009997;28;20038;-71
2022/08/12 13:17:48;;;;;;;5.35;0.82;;;;;;;33.30;17.96;101976.06;5012597;28;20095;-71